Time;durP1;ratioP1;P1;durP2;ratioP2;P2;SDS_P1;SDS_P2;PMS_P1;PMS_P2;Temp;Humidity;BMP_temperature;BMP_pressure;BME280_temperature;BME280_humidity;BME280_pressure;Samples;Min_cycle;Max_cycle;Signal;HPM_P1;HPM_P2
2023/12/27 00:00:29;;;;;;;7.00;1.90;;;;;;;5.62;81.92;99300.88;5034146;28;20029;-78
2023/12/27 00:02:56;;;;;;;7.28;3.13;;;;;;;5.56;81.62;99303.53;5030579;28;20076;-78
2023/12/27 00:05:21;;;;;;;11.48;2.58;;;;;;;5.54;81.80;99306.41;5030751;28;20485;-77
2023/12/27 00:07:47;;;;;;;6.38;1.80;;;;;;;5.40;81.83;99298.66;5032955;28;20072;-77
2023/12/27 00:10:12;;;;;;;5.93;1.67;;;;;;;5.33;82.40;99309.25;5030630;28;20473;-77
2023/12/27 00:12:38;;;;;;;7.20;2.08;;;;;;;5.47;81.28;99316.19;5030878;28;20060;-78
2023/12/27 00:15:03;;;;;;;12.18;1.77;;;;;;;5.38;81.75;99312.09;5016522;28;20056;-77
2023/12/27 00:17:29;;;;;;;4.30;1.67;;;;;;;5.38;81.74;99309.44;5015126;28;20441;-77
2023/12/27 00:19:55;;;;;;;2.97;1.65;;;;;;;5.32;81.16;99316.38;5032698;28;20120;-77
2023/12/27 00:22:20;;;;;;;4.97;1.42;;;;;;;5.32;81.37;99315.56;5031539;28;20029;-77
2023/12/27 00:24:45;;;;;;;4.80;1.92;;;;;;;5.29;81.44;99313.31;5035473;28;20033;-77
2023/12/27 00:27:11;;;;;;;7.80;1.90;;;;;;;5.18;81.67;99312.09;5029770;28;20410;-77
2023/12/27 00:29:37;;;;;;;6.43;1.50;;;;;;;5.14;81.49;99310.06;5033690;28;20033;-77
2023/12/27 00:32:03;;;;;;;5.32;1.58;;;;;;;5.18;81.23;99319.22;5031148;28;20493;-77
2023/12/27 00:34:28;;;;;;;4.00;1.33;;;;;;;5.12;81.50;99315.56;5034231;28;20524;-77
2023/12/27 00:36:54;;;;;;;4.53;1.95;;;;;;;5.02;81.54;99325.69;5011849;28;20033;-76
2023/12/27 00:39:23;;;;;;;4.72;1.92;;;;;;;5.09;81.78;99318.59;5014362;28;20045;-76
2023/12/27 00:41:49;;;;;;;11.40;1.92;;;;;;;4.97;82.04;99314.09;5027658;28;20478;-77
2023/12/27 00:44:14;;;;;;;6.45;2.10;;;;;;;5.05;81.86;99321.84;5031837;28;20060;-77
2023/12/27 00:46:41;;;;;;;8.05;2.00;;;;;;;5.00;82.19;99316.34;5027630;28;20029;-78
2023/12/27 00:49:06;;;;;;;5.57;2.00;;;;;;;5.00;81.74;99325.09;5033014;28;20037;-77
2023/12/27 00:51:31;;;;;;;10.23;2.13;;;;;;;4.95;81.82;99330.19;5027110;28;20033;-78
2023/12/27 00:53:57;;;;;;;5.72;2.10;;;;;;;4.89;81.73;99336.25;5032715;28;20025;-77
2023/12/27 00:56:22;;;;;;;2.33;1.33;;;;;;;4.83;81.92;99336.22;5014349;28;20487;-77
2023/12/27 00:58:48;;;;;;;5.60;1.83;;;;;;;4.88;81.85;99325.88;5015292;28;20101;-77
2023/12/27 01:01:14;;;;;;;9.65;1.80;;;;;;;4.87;82.82;99316.34;5032058;28;20087;-77
2023/12/27 01:03:40;;;;;;;10.20;2.50;;;;;;;4.87;81.86;99329.56;5031793;28;20505;-76
2023/12/27 01:06:07;;;;;;;11.35;2.67;;;;;;;4.90;81.54;99339.72;5024812;28;20040;-77
2023/12/27 01:08:33;;;;;;;4.82;2.13;;;;;;;4.72;82.68;99336.84;5013109;28;20063;-77
2023/12/27 01:10:58;;;;;;;9.88;1.90;;;;;;;4.75;82.25;99347.81;5035106;28;20057;-77
2023/12/27 01:13:24;;;;;;;6.80;2.10;;;;;;;4.71;82.89;99356.34;5027820;28;20041;-77
2023/12/27 01:15:49;;;;;;;3.97;1.65;;;;;;;4.67;82.52;99352.47;5030318;28;20534;-77
2023/12/27 01:18:15;;;;;;;5.60;2.70;;;;;;;4.74;82.01;99361.25;5031209;28;20029;-77
2023/12/27 01:20:40;;;;;;;9.60;2.08;;;;;;;4.72;82.99;99361.44;5031407;28;20128;-77
2023/12/27 01:23:05;;;;;;;5.38;1.73;;;;;;;4.67;82.51;99358.59;5032262;28;20494;-78
2023/12/27 01:25:31;;;;;;;1.70;1.60;;;;;;;4.62;82.77;99366.28;5032711;28;20052;-77
2023/12/27 01:27:56;;;;;;;4.28;1.65;;;;;;;4.69;82.94;99361.84;5023967;28;20127;-78
2023/12/27 01:30:21;;;;;;;2.47;1.52;;;;;;;4.61;83.02;99361.19;5008513;28;20056;-77
2023/12/27 01:32:47;;;;;;;6.45;2.75;;;;;;;4.67;82.46;99360.41;5015852;28;20519;-77
2023/12/27 01:35:12;;;;;;;6.13;1.65;;;;;;;4.73;82.89;99359.59;5012004;28;20108;-76
2023/12/27 01:37:38;;;;;;;8.77;2.10;;;;;;;4.70;82.49;99357.34;5032399;28;20025;-77
2023/12/27 01:40:04;;;;;;;3.97;1.50;;;;;;;4.70;82.83;99355.53;5015780;28;20036;-77
2023/12/27 01:42:30;;;;;;;7.50;2.25;;;;;;;4.77;82.94;99366.13;5032498;28;20080;-78
2023/12/27 01:44:56;;;;;;;4.93;2.08;;;;;;;4.77;82.87;99366.94;5032751;28;20047;-77
2023/12/27 01:47:21;;;;;;;4.38;1.40;;;;;;;4.77;82.88;99372.22;5032523;28;20470;-76
2023/12/27 01:49:47;;;;;;;8.30;2.05;;;;;;;4.72;83.67;99379.16;5043336;28;20476;-77
2023/12/27 01:52:13;;;;;;;5.80;1.77;;;;;;;4.76;82.93;99375.09;5035141;28;20123;-78
2023/12/27 01:54:38;;;;;;;5.18;1.85;;;;;;;4.77;82.99;99369.59;5029840;28;20048;-78
2023/12/27 01:57:04;;;;;;;7.45;1.83;;;;;;;4.82;83.40;99379.56;5029314;28;20421;-77
2023/12/27 01:59:30;;;;;;;5.53;1.65;;;;;;;4.76;83.60;99388.31;5032110;28;20112;-78
2023/12/27 02:01:55;;;;;;;3.78;1.70;;;;;;;4.83;83.11;99375.91;5010527;28;20437;-78
2023/12/27 02:04:20;;;;;;;6.30;1.95;;;;;;;4.85;83.85;99371.25;5034114;28;20033;-78
2023/12/27 02:06:47;;;;;;;6.53;2.80;;;;;;;4.59;84.42;99365.88;5017207;28;20037;-78
2023/12/27 02:09:12;;;;;;;10.43;1.80;;;;;;;3.76;85.88;99364.16;5028208;28;20030;-78
2023/12/27 02:11:38;;;;;;;11.82;1.67;;;;;;;3.61;87.40;99358.97;5009450;28;20125;-78
2023/12/27 02:14:06;;;;;;;4.20;1.55;;;;;;;4.61;86.04;99362.00;5031107;28;20029;-79
2023/12/27 02:16:32;;;;;;;8.63;2.38;;;;;;;4.69;84.17;99359.19;4997473;28;20033;-79
2023/12/27 02:19:00;;;;;;;11.27;1.92;;;;;;;4.23;84.01;99359.00;5031267;28;20025;-79
2023/12/27 02:21:26;;;;;;;7.45;1.63;;;;;;;4.38;84.82;99350.94;5043433;28;20100;-78
2023/12/27 02:23:55;;;;;;;7.45;2.10;;;;;;;4.62;84.32;99345.13;5034876;28;20037;-78
2023/12/27 02:26:21;;;;;;;3.00;1.95;;;;;;;4.66;83.40;99340.25;5057741;28;20120;-78
2023/12/27 02:28:46;;;;;;;8.88;1.77;;;;;;;4.64;83.59;99339.63;5047058;28;20120;-78
2023/12/27 02:31:11;;;;;;;5.90;2.08;;;;;;;4.79;82.92;99342.94;5032189;28;20161;-77
2023/12/27 02:33:43;;;;;;;5.22;1.80;;;;;;;4.82;83.22;99339.91;5031614;28;20034;-78
2023/12/27 02:36:09;;;;;;;6.13;2.22;;;;;;;4.80;83.00;99347.22;5032673;28;20067;-78
2023/12/27 02:38:35;;;;;;;5.03;1.55;;;;;;;4.72;83.04;99352.69;5036538;28;20436;-77
2023/12/27 02:41:02;;;;;;;7.63;1.60;;;;;;;4.60;82.55;99343.69;5014737;28;20037;-77
2023/12/27 02:43:27;;;;;;;11.48;1.90;;;;;;;4.68;83.65;99346.97;5032614;28;20402;-77
2023/12/27 02:45:52;;;;;;;6.75;1.55;;;;;;;4.65;83.13;99350.03;5034329;28;20039;-78
2023/12/27 02:48:18;;;;;;;6.13;1.60;;;;;;;4.68;83.04;99349.63;5033287;28;20057;-76
2023/12/27 02:50:44;;;;;;;3.72;1.50;;;;;;;4.70;82.77;99344.13;5030528;28;20132;-75
2023/12/27 02:53:13;;;;;;;12.20;2.40;;;;;;;4.71;82.78;99343.13;5033259;28;20032;-78
2023/12/27 02:55:38;;;;;;;7.75;1.50;;;;;;;4.66;82.84;99343.72;5031084;28;20041;-78
2023/12/27 02:58:04;;;;;;;7.30;1.90;;;;;;;4.63;82.64;99340.66;5034983;28;20022;-78
2023/12/27 03:00:34;;;;;;;5.25;1.88;;;;;;;4.58;83.03;99338.63;5033301;28;20101;-78
2023/12/27 03:03:00;;;;;;;4.90;1.63;;;;;;;4.59;83.69;99339.44;5035566;28;20033;-78
2023/12/27 03:05:26;;;;;;;3.55;1.10;;;;;;;4.56;83.21;99340.66;5032380;28;20059;-78
2023/12/27 03:07:51;;;;;;;10.15;1.75;;;;;;;4.48;83.22;99344.25;5034400;28;20022;-78
2023/12/27 03:10:17;;;;;;;8.27;2.22;;;;;;;4.46;83.54;99338.34;5034660;28;20035;-77
2023/12/27 03:12:42;;;;;;;5.60;1.48;;;;;;;4.47;82.82;99339.19;5030986;28;20475;-77
2023/12/27 03:15:07;;;;;;;4.70;1.70;;;;;;;4.45;82.50;99347.31;5030222;28;20045;-77
2023/12/27 03:17:33;;;;;;;4.35;2.17;;;;;;;4.42;83.02;99350.34;5034320;28;20033;-77
2023/12/27 03:19:58;;;;;;;8.05;1.75;;;;;;;4.33;82.75;99369.19;5030798;28;20033;-78
2023/12/27 03:22:24;;;;;;;8.35;1.92;;;;;;;4.31;82.51;99358.81;5025936;28;20061;-78
2023/12/27 03:24:49;;;;;;;5.28;1.85;;;;;;;4.29;82.16;99350.28;5013694;28;20041;-77
2023/12/27 03:27:14;;;;;;;7.15;1.92;;;;;;;4.30;82.68;99343.16;5034380;28;20029;-77
2023/12/27 03:29:40;;;;;;;8.18;1.63;;;;;;;4.31;82.38;99350.06;5048308;28;20038;-77
2023/12/27 03:32:06;;;;;;;7.63;2.88;;;;;;;4.22;82.26;99344.13;5017971;28;20041;-77
2023/12/27 03:34:32;;;;;;;5.32;1.23;;;;;;;4.22;82.49;99344.13;5032378;28;20067;-77
2023/12/27 03:36:57;;;;;;;2.17;1.90;;;;;;;4.03;82.60;99334.28;5027532;28;20033;-77
2023/12/27 03:39:23;;;;;;;4.82;1.73;;;;;;;4.04;83.08;99333.25;5046459;28;20072;-76
2023/12/27 03:41:49;;;;;;;19.30;1.80;;;;;;;4.13;82.65;99336.59;5034121;28;20025;-78
2023/12/27 03:44:14;;;;;;;3.47;1.52;;;;;;;4.12;82.54;99327.84;5036525;28;20044;-77
2023/12/27 03:46:39;;;;;;;4.88;1.65;;;;;;;4.17;82.03;99332.53;5032351;28;20406;-77
2023/12/27 03:49:05;;;;;;;6.82;1.50;;;;;;;4.12;82.13;99329.66;5032549;28;20033;-78
2023/12/27 03:51:30;;;;;;;2.25;1.30;;;;;;;4.05;82.22;99328.81;5025575;28;20022;-77
2023/12/27 03:53:55;;;;;;;6.85;3.13;;;;;;;3.99;82.23;99324.31;5034395;28;20406;-78
2023/12/27 03:56:21;;;;;;;1.90;1.17;;;;;;;4.00;82.40;99320.66;5026189;28;20186;-77
2023/12/27 03:58:46;;;;;;;6.35;1.42;;;;;;;4.07;81.90;99327.59;5031614;28;20034;-77
2023/12/27 04:01:18;;;;;;;4.70;2.03;;;;;;;4.04;81.51;99327.19;5050169;28;20461;-77
2023/12/27 04:03:43;;;;;;;2.92;1.38;;;;;;;3.91;82.26;99322.63;5011744;28;20053;-76
2023/12/27 04:06:09;;;;;;;5.82;1.40;;;;;;;3.92;82.64;99323.44;5033130;28;20033;-78
2023/12/27 04:08:34;;;;;;;6.93;1.30;;;;;;;3.88;83.09;99328.31;5033677;28;20053;-78
2023/12/27 04:11:00;;;;;;;7.45;2.67;;;;;;;3.90;82.92;99323.66;5015395;28;20056;-78
2023/12/27 04:13:25;;;;;;;5.68;2.03;;;;;;;3.94;82.67;99321.41;5017371;28;20037;-78
2023/12/27 04:15:50;;;;;;;9.32;2.08;;;;;;;3.93;82.65;99319.81;5028599;28;20042;-78
2023/12/27 04:18:16;;;;;;;4.68;1.65;;;;;;;3.96;83.35;99314.13;5032951;28;20083;-77
2023/12/27 04:20:41;;;;;;;4.03;1.58;;;;;;;3.94;83.70;99322.25;5030401;28;20043;-78
2023/12/27 04:23:06;;;;;;;6.20;2.15;;;;;;;4.00;83.48;99316.19;5033657;28;20548;-77
2023/12/27 04:25:32;;;;;;;4.97;1.48;;;;;;;4.01;83.21;99317.00;5029350;28;20445;-76
2023/12/27 04:27:57;;;;;;;4.35;1.35;;;;;;;3.97;83.99;99305.19;5031272;28;20029;-76
2023/12/27 04:30:23;;;;;;;6.53;1.73;;;;;;;3.96;83.80;99311.47;5010002;28;20033;-77
2023/12/27 04:32:48;;;;;;;2.50;1.58;;;;;;;4.03;84.05;99302.59;5015118;28;20095;-76
2023/12/27 04:35:13;;;;;;;4.43;1.45;;;;;;;4.15;83.27;99318.72;5027649;28;20033;-77
2023/12/27 04:37:39;;;;;;;3.03;1.45;;;;;;;3.99;84.26;99321.66;5030008;28;20072;-76
2023/12/27 04:40:05;;;;;;;3.35;1.48;;;;;;;4.16;84.27;99328.25;5030285;28;20075;-77
2023/12/27 04:42:30;;;;;;;2.85;1.17;;;;;;;4.13;83.52;99329.47;5036612;28;20021;-77
2023/12/27 04:44:56;;;;;;;4.70;1.65;;;;;;;4.13;83.68;99318.09;5031071;28;20386;-77
2023/12/27 04:47:21;;;;;;;7.03;3.35;;;;;;;4.15;84.24;99343.28;5026615;28;20386;-77
2023/12/27 04:49:46;;;;;;;4.95;1.60;;;;;;;4.18;84.71;99328.88;5026980;28;20130;-76
2023/12/27 04:52:12;;;;;;;6.55;1.85;;;;;;;4.11;84.72;99320.09;5034829;28;20056;-77
2023/12/27 04:54:37;;;;;;;6.30;1.55;;;;;;;4.08;85.10;99329.25;5027949;28;20033;-77
2023/12/27 04:57:03;;;;;;;7.43;1.67;;;;;;;3.95;85.24;99323.06;5029162;28;20041;-76
2023/12/27 04:59:30;;;;;;;9.40;1.73;;;;;;;4.02;85.65;99323.94;5030339;28;20026;-76
2023/12/27 05:01:55;;;;;;;4.07;1.67;;;;;;;4.04;86.04;99327.97;5030576;28;20033;-76
2023/12/27 05:04:21;;;;;;;4.50;1.42;;;;;;;4.16;85.91;99334.34;5031936;28;20038;-77
2023/12/27 05:06:47;;;;;;;3.80;1.90;;;;;;;4.00;85.98;99323.31;5028426;28;20136;-77
2023/12/27 05:09:16;;;;;;;6.25;1.92;;;;;;;3.38;87.66;99331.19;5011250;28;20141;-77
2023/12/27 05:11:41;;;;;;;9.63;1.75;;;;;;;2.98;89.06;99320.28;5032415;28;20040;-77
2023/12/27 05:14:07;;;;;;;3.88;1.80;;;;;;;3.99;87.41;99330.41;5030410;28;20026;-76
2023/12/27 05:16:32;;;;;;;5.35;1.63;;;;;;;4.27;85.65;99322.41;5032491;28;20099;-77
2023/12/27 05:18:57;;;;;;;4.05;1.27;;;;;;;4.19;84.57;99336.63;5031375;28;20083;-77
2023/12/27 05:21:23;;;;;;;5.05;1.63;;;;;;;4.11;85.23;99339.41;5029139;28;20061;-77
2023/12/27 05:23:48;;;;;;;5.05;2.00;;;;;;;3.98;85.59;99341.97;5029495;28;20030;-77
2023/12/27 05:26:13;;;;;;;4.75;1.55;;;;;;;3.76;87.11;99343.03;5025362;28;20026;-76
2023/12/27 05:28:40;;;;;;;4.95;1.90;;;;;;;4.19;85.08;99351.66;5028827;28;20045;-76
2023/12/27 05:31:05;;;;;;;5.68;1.73;;;;;;;4.15;84.79;99343.28;5031397;28;20397;-77
2023/12/27 05:33:31;;;;;;;5.10;1.20;;;;;;;4.24;83.82;99355.31;5015742;28;20026;-78
2023/12/27 05:35:57;;;;;;;2.92;1.50;;;;;;;4.20;83.78;99340.88;5036333;28;20040;-78
2023/12/27 05:38:22;;;;;;;6.25;1.42;;;;;;;4.23;83.52;99344.97;5042759;28;20623;-77
2023/12/27 05:40:48;;;;;;;5.10;1.70;;;;;;;4.20;83.51;99346.16;5029702;28;20041;-78
2023/12/27 05:43:14;;;;;;;5.00;1.70;;;;;;;4.15;83.09;99343.28;5028070;28;20390;-77
2023/12/27 05:45:39;;;;;;;5.53;1.30;;;;;;;4.07;83.23;99337.34;5029568;28;20025;-76
2023/12/27 05:48:05;;;;;;;2.28;1.50;;;;;;;4.09;83.33;99343.25;5034745;28;20030;-76
2023/12/27 05:50:30;;;;;;;2.88;1.88;;;;;;;4.03;83.39;99339.56;5030230;28;20037;-77
2023/12/27 05:52:56;;;;;;;8.18;1.85;;;;;;;3.96;82.99;99337.88;5028488;28;20041;-76
2023/12/27 05:55:21;;;;;;;7.55;2.10;;;;;;;3.98;83.42;99349.06;5028569;28;20049;-77
2023/12/27 05:57:46;;;;;;;3.47;1.40;;;;;;;3.87;83.14;99339.06;5026718;28;20083;-76
2023/12/27 06:00:15;;;;;;;4.03;1.67;;;;;;;3.94;83.54;99342.53;5022085;28;20088;-76
2023/12/27 06:02:41;;;;;;;8.55;2.15;;;;;;;3.82;83.26;99330.91;5034639;28;20141;-76
2023/12/27 06:05:07;;;;;;;4.63;1.50;;;;;;;3.92;83.34;99341.94;5025412;28;20049;-77
2023/12/27 06:07:32;;;;;;;2.58;1.40;;;;;;;3.89;83.36;99335.19;5033205;28;20037;-77
2023/12/27 06:09:58;;;;;;;5.18;1.67;;;;;;;3.83;82.78;99333.34;5032676;28;20167;-78
2023/12/27 06:12:23;;;;;;;5.00;1.10;;;;;;;3.74;83.38;99335.31;5030644;28;20029;-77
2023/12/27 06:14:48;;;;;;;7.20;1.48;;;;;;;3.78;83.30;99327.81;5023662;28;20067;-76
2023/12/27 06:17:14;;;;;;;6.00;1.58;;;;;;;3.67;83.67;99323.06;5031214;28;20037;-76
2023/12/27 06:19:39;;;;;;;2.30;1.33;;;;;;;3.67;83.79;99325.72;5024266;28;20044;-77
2023/12/27 06:22:05;;;;;;;2.92;1.70;;;;;;;3.71;83.51;99324.34;5030945;28;20037;-76
2023/12/27 06:24:31;;;;;;;8.45;1.80;;;;;;;3.65;83.34;99322.44;5028548;28;20045;-76
2023/12/27 06:26:56;;;;;;;8.52;2.20;;;;;;;3.66;84.08;99326.75;5025674;28;20048;-76
2023/12/27 06:29:21;;;;;;;5.68;3.35;;;;;;;3.52;84.63;99317.06;5027933;28;20041;-76
2023/12/27 06:31:47;;;;;;;2.72;1.83;;;;;;;3.65;84.53;99323.28;5029377;28;20397;-76
2023/12/27 06:34:12;;;;;;;4.15;1.45;;;;;;;3.71;84.00;99329.63;5028401;28;20042;-76
2023/12/27 06:36:38;;;;;;;4.25;1.85;;;;;;;3.66;83.95;99324.09;5029433;28;20044;-76
2023/12/27 06:39:06;;;;;;;4.28;2.15;;;;;;;3.56;84.59;99336.81;5022209;28;20025;-77
2023/12/27 06:41:32;;;;;;;8.25;2.33;;;;;;;3.72;84.53;99332.06;5030013;28;20544;-77
2023/12/27 06:43:57;;;;;;;7.40;2.25;;;;;;;3.67;84.50;99331.00;5027406;28;20034;-76
2023/12/27 06:46:22;;;;;;;8.90;2.60;;;;;;;3.67;84.46;99325.72;5030188;28;20033;-77
2023/12/27 06:48:48;;;;;;;5.35;2.47;;;;;;;3.75;84.42;99322.94;5031145;28;20056;-76
2023/12/27 06:51:13;;;;;;;6.55;2.35;;;;;;;3.75;83.80;99328.22;5013055;28;20037;-76
2023/12/27 06:53:39;;;;;;;6.63;2.75;;;;;;;3.84;83.32;99316.50;5030664;28;20099;-77
2023/12/27 06:56:04;;;;;;;3.92;1.90;;;;;;;3.82;83.31;99318.53;5029577;28;20042;-77
2023/12/27 06:58:30;;;;;;;3.08;1.70;;;;;;;3.86;82.68;99314.50;5029156;28;20026;-77
2023/12/27 07:00:55;;;;;;;5.32;2.35;;;;;;;3.76;83.36;99320.09;5026839;28;20029;-76
2023/12/27 07:03:20;;;;;;;5.43;2.38;;;;;;;3.60;83.57;99306.41;5032890;28;20025;-77
2023/12/27 07:05:46;;;;;;;8.48;2.53;;;;;;;3.74;83.46;99327.41;5040807;28;20044;-77
2023/12/27 07:08:11;;;;;;;3.75;1.98;;;;;;;3.67;83.41;99331.81;5029415;28;20021;-76
2023/12/27 07:10:37;;;;;;;7.28;2.05;;;;;;;3.64;83.71;99320.84;5026000;28;20034;-76
2023/12/27 07:13:02;;;;;;;10.60;2.92;;;;;;;3.72;83.83;99320.69;5032731;28;20033;-76
2023/12/27 07:15:29;;;;;;;9.23;3.13;;;;;;;3.80;84.09;99331.06;5027497;28;20076;-76
2023/12/27 07:17:54;;;;;;;12.13;2.88;;;;;;;3.78;83.85;99319.91;5035570;28;20025;-76
2023/12/27 07:20:21;;;;;;;5.50;2.30;;;;;;;3.73;84.14;99319.69;5032504;28;20044;-77
2023/12/27 07:22:47;;;;;;;5.57;2.75;;;;;;;3.65;84.20;99333.81;5030031;28;20112;-77
2023/12/27 07:25:12;;;;;;;8.43;2.65;;;;;;;3.57;84.98;99330.53;5031817;28;20171;-77
2023/12/27 07:27:38;;;;;;;8.50;2.90;;;;;;;3.75;84.89;99333.50;5030799;28;20116;-78
2023/12/27 07:30:04;;;;;;;4.88;3.13;;;;;;;3.73;84.86;99320.47;5027493;28;20575;-78
2023/12/27 07:32:30;;;;;;;7.32;3.25;;;;;;;3.71;85.28;99316.41;5030147;28;20026;-78
2023/12/27 07:34:57;;;;;;;7.07;2.42;;;;;;;3.67;84.75;99320.44;5032931;28;20071;-77
2023/12/27 07:37:24;;;;;;;4.75;3.22;;;;;;;3.71;85.49;99329.63;5014787;28;20040;-77
2023/12/27 07:39:49;;;;;;;11.32;2.78;;;;;;;3.71;85.14;99334.91;5034605;28;20061;-78
2023/12/27 07:42:14;;;;;;;11.27;3.30;;;;;;;3.79;84.32;99332.09;5032751;28;20064;-78
2023/12/27 07:44:40;;;;;;;12.25;3.47;;;;;;;3.72;84.43;99328.59;5032278;28;20030;-77
2023/12/27 07:47:06;;;;;;;10.52;3.67;;;;;;;3.79;84.23;99321.53;5032741;28;20095;-77
2023/12/27 07:49:32;;;;;;;5.93;3.60;;;;;;;3.74;84.62;99329.22;5034742;28;20039;-78
2023/12/27 07:51:57;;;;;;;14.45;6.18;;;;;;;3.77;85.17;99326.19;5034388;28;20029;-77
2023/12/27 07:54:23;;;;;;;10.20;4.07;;;;;;;3.89;84.57;99326.50;5034553;28;20108;-78
2023/12/27 07:56:48;;;;;;;9.85;4.35;;;;;;;3.89;84.23;99319.38;5033869;28;20639;-78
2023/12/27 07:59:13;;;;;;;8.82;4.20;;;;;;;3.79;83.96;99325.00;5024444;28;20021;-77
2023/12/27 08:01:39;;;;;;;7.10;4.07;;;;;;;3.69;85.19;99327.16;5032196;28;20038;-78
2023/12/27 08:04:04;;;;;;;7.40;3.90;;;;;;;3.66;85.55;99324.09;5029394;28;20037;-77
2023/12/27 08:06:29;;;;;;;14.98;4.13;;;;;;;3.57;85.16;99306.78;5029915;28;20034;-77
2023/12/27 08:08:58;;;;;;;13.52;3.90;;;;;;;3.64;86.03;99319.03;5028639;28;20037;-77
2023/12/27 08:11:23;;;;;;;10.23;3.92;;;;;;;3.66;85.55;99310.91;5033865;28;20043;-77
2023/12/27 08:13:49;;;;;;;7.78;3.30;;;;;;;3.73;85.75;99312.56;5031783;28;20022;-78
2023/12/27 08:16:14;;;;;;;14.68;4.15;;;;;;;3.60;86.13;99309.81;5043741;22;20410;-81
2023/12/27 08:18:41;;;;;;;7.53;3.35;;;;;;;3.64;85.94;99315.56;4977069;28;20065;-81
2023/12/27 08:21:06;;;;;;;5.45;4.10;;;;;;;3.60;85.80;99309.03;5005828;28;20065;-81
2023/12/27 08:23:32;;;;;;;11.50;3.70;;;;;;;3.50;86.46;99301.44;5005905;28;20517;-81
2023/12/27 08:25:57;;;;;;;6.10;3.45;;;;;;;3.63;85.69;99308.63;5011269;28;20393;-81
2023/12/27 08:28:23;;;;;;;13.63;4.00;;;;;;;3.57;86.25;99294.41;5008456;28;20037;-81
2023/12/27 08:30:50;;;;;;;7.75;3.47;;;;;;;3.54;87.00;99289.50;5007836;28;20050;-81
2023/12/27 08:33:15;;;;;;;11.70;3.80;;;;;;;3.46;86.80;99283.56;5013626;28;20088;-82
2023/12/27 08:35:41;;;;;;;9.25;4.00;;;;;;;3.46;87.67;99284.38;5002000;28;20034;-81
2023/12/27 08:38:08;;;;;;;16.17;4.70;;;;;;;3.56;87.10;99282.19;5005750;28;20046;-81
2023/12/27 08:40:34;;;;;;;15.43;6.07;;;;;;;3.52;87.38;99298.59;5001508;28;20030;-81
2023/12/27 08:43:00;;;;;;;11.23;5.20;;;;;;;3.54;87.79;99292.13;5007035;28;20084;-81
2023/12/27 08:45:26;;;;;;;14.43;6.13;;;;;;;3.58;86.85;99276.75;4994591;28;20465;-81
2023/12/27 08:47:51;;;;;;;16.70;5.93;;;;;;;3.61;87.51;99271.06;5010518;28;20040;-81
2023/12/27 08:50:16;;;;;;;11.38;5.18;;;;;;;3.56;87.21;99265.56;5007129;28;20034;-81
2023/12/27 08:52:42;;;;;;;11.10;5.28;;;;;;;3.58;87.78;99261.69;5013314;28;20022;-81
2023/12/27 08:55:10;;;;;;;8.73;4.32;;;;;;;3.54;87.49;99252.53;5011770;28;20041;-81
2023/12/27 08:57:35;;;;;;;18.48;4.88;;;;;;;3.69;87.42;99261.16;4988862;28;20041;-81
2023/12/27 09:00:01;;;;;;;9.77;4.50;;;;;;;3.60;88.29;99256.25;4993974;28;20461;-81
2023/12/27 09:02:27;;;;;;;11.10;4.45;;;;;;;3.59;87.75;99255.44;5004373;28;20061;-81
2023/12/27 09:04:52;;;;;;;11.75;4.97;;;;;;;3.66;88.59;99258.94;5008495;28;20396;-81
2023/12/27 09:07:18;;;;;;;12.82;5.10;;;;;;;3.74;88.53;99255.31;5009138;28;20117;-81
2023/12/27 09:09:43;;;;;;;16.83;5.32;;;;;;;3.75;88.55;99247.22;5005113;28;20072;-81
2023/12/27 09:12:08;;;;;;;14.38;5.50;;;;;;;3.77;88.75;99225.88;5015281;28;20026;-81
2023/12/27 09:14:34;;;;;;;12.25;5.00;;;;;;;3.84;88.09;99234.66;4993959;28;20030;-81
2023/12/27 09:16:59;;;;;;;15.10;5.10;;;;;;;3.79;88.17;99229.97;5008597;28;20487;-81
2023/12/27 09:19:25;;;;;;;14.50;5.22;;;;;;;3.85;88.07;99233.63;4994426;28;20033;-81
2023/12/27 09:21:50;;;;;;;10.48;5.38;;;;;;;3.86;88.22;99227.38;5004103;28;20034;-81
2023/12/27 09:24:16;;;;;;;9.95;5.85;;;;;;;3.93;88.64;99224.75;4993006;28;20083;-80
2023/12/27 09:26:41;;;;;;;15.98;5.78;;;;;;;4.05;87.82;99234.53;4991244;28;20037;-81
2023/12/27 09:29:09;;;;;;;10.45;4.90;;;;;;;4.01;87.89;99229.84;5010078;28;20034;-81
2023/12/27 09:31:35;;;;;;;10.10;5.70;;;;;;;4.05;88.47;99223.16;5001102;28;20492;-81
2023/12/27 09:34:00;;;;;;;18.92;5.20;;;;;;;4.00;88.27;99222.97;5011667;28;20030;-81
2023/12/27 09:36:26;;;;;;;16.27;6.10;;;;;;;4.12;87.94;99222.19;5006940;28;20038;-81
2023/12/27 09:38:52;;;;;;;9.38;5.90;;;;;;;4.08;88.22;99228.06;5011100;28;20402;-81
2023/12/27 09:41:17;;;;;;;13.02;6.80;;;;;;;4.21;88.53;99215.72;5004089;28;20034;-81
2023/12/27 09:43:45;;;;;;;14.40;5.63;;;;;;;4.30;87.59;99219.00;5008399;28;20048;-81
2023/12/27 09:46:13;;;;;;;13.38;5.95;;;;;;;4.32;88.67;99203.75;5010589;28;20120;-81
2023/12/27 09:48:42;;;;;;;12.38;6.45;;;;;;;4.12;89.61;99221.38;4991470;28;20121;-81
2023/12/27 09:51:11;;;;;;;14.73;7.00;;;;;;;4.27;89.73;99212.28;5001442;28;20022;-81
2023/12/27 09:53:36;;;;;;;14.90;7.32;;;;;;;4.22;91.13;99204.13;5002799;28;20387;-81
2023/12/27 09:56:03;;;;;;;16.30;6.68;;;;;;;4.51;87.88;99218.84;5002767;28;20127;-82
2023/12/27 09:58:28;;;;;;;13.75;7.18;;;;;;;4.35;88.30;99204.16;5007117;28;20115;-82
2023/12/27 10:01:01;;;;;;;13.68;7.20;;;;;;;4.14;90.52;99200.84;5005929;28;20068;-82
2023/12/27 10:03:39;;;;;;;11.40;6.07;;;;;;;4.11;93.26;99198.59;5003667;28;20036;-82
2023/12/27 10:06:14;;;;;;;15.27;6.90;;;;;;;4.50;90.42;99207.44;4988516;28;20026;-82
2023/12/27 10:08:39;;;;;;;14.18;6.65;;;;;;;4.67;88.35;99205.25;5002883;28;20401;-82
2023/12/27 10:11:07;;;;;;;21.77;7.25;;;;;;;4.90;86.74;99197.72;4988965;28;20095;-82
2023/12/27 10:13:36;;;;;;;12.25;6.15;;;;;;;4.92;86.21;99202.81;5009241;28;20033;-82
2023/12/27 10:16:04;;;;;;;9.65;5.65;;;;;;;4.99;86.35;99200.97;4993407;28;20034;-82
2023/12/27 10:18:30;;;;;;;17.25;7.32;;;;;;;4.90;86.17;99187.16;5007905;28;20025;-81
2023/12/27 10:20:55;;;;;;;15.43;6.30;;;;;;;4.92;87.24;99189.56;4989603;28;20076;-82
2023/12/27 10:23:22;;;;;;;35.83;15.82;;;;;;;4.79;88.21;99174.53;4990077;28;20904;-82
2023/12/27 10:25:47;;;;;;;23.55;8.90;;;;;;;4.99;86.75;99190.41;4986942;28;20067;-82
2023/12/27 10:28:12;;;;;;;25.90;9.23;;;;;;;4.96;87.31;99191.63;4980097;28;20058;-82
2023/12/27 10:30:38;;;;;;;21.58;8.95;;;;;;;4.61;92.40;99186.72;4967074;28;20070;-82
2023/12/27 10:33:04;;;;;;;15.95;7.40;;;;;;;4.54;92.34;99186.72;4989331;28;20037;-82
2023/12/27 10:35:31;;;;;;;20.95;7.82;;;;;;;4.30;93.93;99172.22;5006951;28;20040;-82
2023/12/27 10:38:02;;;;;;;13.85;7.72;;;;;;;4.74;91.13;99174.31;5009800;28;20037;-82
2023/12/27 10:40:27;;;;;;;11.25;6.63;;;;;;;4.97;87.74;99166.81;5010800;28;20030;-82
2023/12/27 10:42:53;;;;;;;16.08;7.55;;;;;;;4.86;89.86;99171.88;5008852;28;20040;-82
2023/12/27 10:45:20;;;;;;;17.10;7.60;;;;;;;4.99;89.02;99162.13;5010613;28;20030;-81
2023/12/27 10:47:48;;;;;;;19.08;8.02;;;;;;;4.98;89.11;99164.97;4998608;28;20030;-82
2023/12/27 10:50:20;;;;;;;17.80;6.78;;;;;;;5.13;88.22;99162.94;4976181;28;20077;-82
2023/12/27 10:52:58;;;;;;;16.92;7.13;;;;;;;4.95;89.49;99141.56;5012413;28;20032;-82
2023/12/27 10:55:28;;;;;;;24.30;7.50;;;;;;;4.86;90.14;99132.22;5017292;28;20034;-83
2023/12/27 10:57:55;;;;;;;12.65;6.53;;;;;;;4.65;91.04;99140.38;5010122;28;20073;-82
2023/12/27 11:00:21;;;;;;;16.65;8.20;;;;;;;4.68;91.97;99135.47;5013549;28;20103;-82
2023/12/27 11:02:47;;;;;;;16.17;7.03;;;;;;;4.85;90.78;99136.69;5014708;28;20033;-82
2023/12/27 11:05:15;;;;;;;20.25;6.88;;;;;;;4.90;89.81;99138.72;4995723;28;20033;-82
2023/12/27 11:07:42;;;;;;;21.23;6.95;;;;;;;4.43;91.58;99114.13;5012441;28;20033;-83
2023/12/27 11:10:10;;;;;;;18.73;7.07;;;;;;;4.77;92.08;99128.16;5011171;28;20048;-82
2023/12/27 11:12:38;;;;;;;13.02;6.68;;;;;;;4.96;90.13;99100.88;5009924;28;20038;-82
2023/12/27 11:15:05;;;;;;;16.10;6.72;;;;;;;4.64;92.71;99089.31;4989742;28;20041;-82
2023/12/27 11:17:35;;;;;;;22.90;6.03;;;;;;;4.66;91.89;99089.09;5010542;28;20111;-82
2023/12/27 11:20:04;;;;;;;13.20;6.38;;;;;;;4.89;91.71;99086.88;4993122;28;20440;-82
2023/12/27 11:22:31;;;;;;;15.13;5.88;;;;;;;4.73;92.27;99084.63;5013391;28;20030;-82
2023/12/27 11:24:56;;;;;;;16.17;5.88;;;;;;;4.73;91.06;99100.50;5011054;28;20045;-82
2023/12/27 11:27:22;;;;;;;19.88;5.65;;;;;;;5.06;90.02;99099.44;5010050;28;20042;-82
2023/12/27 11:29:48;;;;;;;9.57;4.78;;;;;;;5.02;90.30;99095.56;4996662;28;20025;-82
2023/12/27 11:32:15;;;;;;;13.48;5.10;;;;;;;5.25;90.04;99089.81;5012208;28;20434;-82